Time;durP1;ratioP1;P1;durP2;ratioP2;P2;SDS_P1;SDS_P2;PMS_P1;PMS_P2;Temp;Humidity;BMP_temperature;BMP_pressure;BME280_temperature;BME280_humidity;BME280_pressure;Samples;Min_cycle;Max_cycle;Signal;HPM_P1;HPM_P2
2021/10/16 00:00:53;;;;;;;33.37;19.20;;;7.60;99.90;;;;;;4175970;28;20041;-61
2021/10/16 00:02:55;;;;;;;31.20;18.43;;;7.50;99.90;;;;;;4175235;28;20037;-61
2021/10/16 00:04:56;;;;;;;32.43;19.90;;;7.60;99.90;;;;;;4174955;28;20037;-61
2021/10/16 00:06:57;;;;;;;33.00;18.43;;;7.50;99.90;;;;;;4175258;28;20033;-62
2021/10/16 00:08:58;;;;;;;31.30;18.10;;;7.50;99.90;;;;;;4176202;28;20103;-63
2021/10/16 00:10:59;;;;;;;35.37;20.20;;;7.50;99.90;;;;;;4175116;28;20041;-62
2021/10/16 00:13:01;;;;;;;32.77;19.20;;;7.40;99.90;;;;;;4175331;28;20493;-57
2021/10/16 00:15:03;;;;;;;35.40;19.93;;;7.40;99.90;;;;;;4174850;28;20053;-60
2021/10/16 00:17:05;;;;;;;34.40;19.83;;;7.50;99.90;;;;;;4175017;28;20079;-63
2021/10/16 00:19:07;;;;;;;34.97;19.40;;;7.50;99.90;;;;;;4174536;28;20021;-61
2021/10/16 00:21:08;;;;;;;34.60;19.43;;;7.40;99.90;;;;;;4174872;28;20095;-62
2021/10/16 00:23:09;;;;;;;37.07;20.40;;;7.40;99.90;;;;;;4175184;28;20029;-58
2021/10/16 00:25:11;;;;;;;34.90;20.33;;;7.40;99.90;;;;;;4175345;28;20037;-60
2021/10/16 00:27:12;;;;;;;35.07;19.30;;;7.40;99.90;;;;;;4175554;28;20037;-60
2021/10/16 00:29:13;;;;;;;33.10;19.57;;;7.40;99.90;;;;;;4174656;28;20103;-61
2021/10/16 00:31:14;;;;;;;32.63;19.27;;;7.40;99.90;;;;;;4175644;28;20025;-58
2021/10/16 00:33:15;;;;;;;35.03;21.03;;;7.40;99.90;;;;;;4175168;28;20486;-61
2021/10/16 00:35:16;;;;;;;41.00;22.90;;;7.40;99.90;;;;;;4175679;28;20087;-59
2021/10/16 00:37:18;;;;;;;43.20;25.73;;;7.40;99.90;;;;;;4174035;28;20045;-61
2021/10/16 00:39:19;;;;;;;39.97;21.00;;;7.40;99.90;;;;;;4175590;28;20099;-61
2021/10/16 00:41:20;;;;;;;35.83;20.20;;;7.40;99.90;;;;;;4174085;28;20107;-61
2021/10/16 00:43:21;;;;;;;33.70;19.10;;;7.40;99.90;;;;;;4175489;28;20033;-58
2021/10/16 00:45:24;;;;;;;37.50;19.73;;;7.40;99.90;;;;;;4174447;28;20544;-60
2021/10/16 00:47:25;;;;;;;35.70;20.83;;;7.40;99.90;;;;;;4175787;28;20025;-58
2021/10/16 00:49:27;;;;;;;39.17;21.03;;;7.40;99.90;;;;;;4174465;28;20425;-60
2021/10/16 00:51:28;;;;;;;35.17;19.93;;;7.40;99.90;;;;;;4175136;28;20086;-61
2021/10/16 00:53:30;;;;;;;38.80;21.63;;;7.40;99.90;;;;;;4174719;28;20452;-60
2021/10/16 00:55:31;;;;;;;37.97;22.10;;;7.30;99.90;;;;;;4174588;28;20049;-59
2021/10/16 00:57:32;;;;;;;36.43;21.03;;;7.30;99.90;;;;;;4174700;28;20055;-62
2021/10/16 00:59:33;;;;;;;40.93;22.77;;;7.30;99.90;;;;;;4173896;28;20090;-61
2021/10/16 01:01:35;;;;;;;43.73;21.47;;;7.30;99.90;;;;;;4175203;28;20083;-60
2021/10/16 01:03:36;;;;;;;37.43;20.37;;;7.30;99.90;;;;;;4174101;28;20044;-61
2021/10/16 01:05:38;;;;;;;37.43;21.30;;;7.30;99.90;;;;;;4174023;28;20041;-58
2021/10/16 01:07:41;;;;;;;36.87;21.03;;;7.30;99.90;;;;;;4173946;28;20067;-60
2021/10/16 01:09:43;;;;;;;38.13;21.00;;;7.30;99.90;;;;;;4174956;28;20370;-59
2021/10/16 01:11:51;;;;;;;35.93;21.03;;;7.30;99.90;;;;;;4173848;28;20063;-60
2021/10/16 01:13:53;;;;;;;35.83;21.67;;;7.30;99.90;;;;;;4174810;28;20082;-62
2021/10/16 01:15:56;;;;;;;37.50;20.43;;;7.30;99.90;;;;;;4173732;28;20029;-60
2021/10/16 01:17:58;;;;;;;37.93;21.17;;;7.30;99.90;;;;;;4175055;28;20451;-62
2021/10/16 01:20:13;;;;;;;42.30;23.70;;;7.30;99.90;;;;;;4173689;28;20045;-61
2021/10/16 01:22:15;;;;;;;41.20;22.87;;;7.30;99.90;;;;;;4175134;28;20477;-57
2021/10/16 01:24:18;;;;;;;45.33;23.40;;;7.30;99.90;;;;;;4173731;28;20028;-58
2021/10/16 01:26:19;;;;;;;40.23;23.03;;;7.30;99.90;;;;;;4174541;28;20057;-57
2021/10/16 01:28:21;;;;;;;40.00;23.17;;;7.30;99.90;;;;;;4173770;28;20032;-60
2021/10/16 01:30:24;;;;;;;39.50;22.27;;;7.20;99.90;;;;;;4173751;28;20029;-60
2021/10/16 01:32:25;;;;;;;40.53;21.67;;;7.20;99.90;;;;;;4170883;28;20070;-62
2021/10/16 01:34:26;;;;;;;39.60;21.33;;;7.20;99.90;;;;;;4173616;28;20044;-62
2021/10/16 01:36:42;;;;;;;40.57;21.47;;;7.20;99.90;;;;;;4173535;28;20037;-60
2021/10/16 01:38:43;;;;;;;44.83;22.43;;;7.10;99.90;;;;;;4173262;28;20040;-62
2021/10/16 01:40:44;;;;;;;38.47;22.17;;;7.10;99.90;;;;;;4174658;28;20037;-60
2021/10/16 01:42:45;;;;;;;38.00;21.50;;;7.10;99.90;;;;;;4172547;28;20473;-60
2021/10/16 01:44:46;;;;;;;38.43;21.00;;;7.10;99.90;;;;;;4174406;28;20098;-61
2021/10/16 01:46:47;;;;;;;34.17;19.97;;;7.20;99.90;;;;;;4173885;28;20698;-61
2021/10/16 01:48:49;;;;;;;33.47;19.10;;;7.10;99.90;;;;;;4173894;28;20070;-62
2021/10/16 01:50:50;;;;;;;35.20;19.83;;;7.10;99.90;;;;;;4172284;28;20048;-59
2021/10/16 01:52:52;;;;;;;37.30;19.67;;;7.20;99.90;;;;;;4174376;28;20665;-60
2021/10/16 01:54:53;;;;;;;36.67;20.23;;;7.20;99.90;;;;;;4155044;28;20550;-59
2021/10/16 01:56:54;;;;;;;35.83;19.97;;;7.20;99.90;;;;;;4173824;28;20067;-57
2021/10/16 01:58:55;;;;;;;33.53;19.60;;;7.20;99.90;;;;;;4173564;28;20029;-58
2021/10/16 02:00:56;;;;;;;36.83;19.73;;;7.20;99.90;;;;;;4156132;28;20092;-60
2021/10/16 02:02:57;;;;;;;36.77;19.37;;;7.20;99.90;;;;;;4172734;28;20036;-59
2021/10/16 02:04:59;;;;;;;32.83;19.27;;;7.30;99.90;;;;;;4173235;28;20032;-60
2021/10/16 02:07:00;;;;;;;38.23;19.90;;;7.20;99.90;;;;;;4172681;28;20472;-60
2021/10/16 02:09:02;;;;;;;34.40;19.53;;;7.30;99.90;;;;;;4173356;28;20095;-60
2021/10/16 02:11:03;;;;;;;32.43;18.77;;;7.30;99.90;;;;;;4174330;28;20101;-57
2021/10/16 02:13:05;;;;;;;34.30;19.73;;;7.30;99.90;;;;;;4173080;28;20091;-59
2021/10/16 02:15:08;;;;;;;35.53;18.67;;;7.30;99.90;;;;;;4173843;28;20106;-58
2021/10/16 02:17:10;;;;;;;37.97;19.60;;;7.30;99.90;;;;;;4172018;28;20045;-57
2021/10/16 02:19:11;;;;;;;35.97;19.13;;;7.30;99.90;;;;;;4174295;28;20441;-59
2021/10/16 02:21:12;;;;;;;31.00;18.37;;;7.30;99.90;;;;;;4173042;28;20102;-58
2021/10/16 02:23:13;;;;;;;33.40;18.43;;;7.40;99.90;;;;;;4174402;28;20474;-60
2021/10/16 02:25:14;;;;;;;32.33;17.83;;;7.30;99.90;;;;;;4173317;28;20032;-58
2021/10/16 02:27:16;;;;;;;36.60;19.23;;;7.30;99.90;;;;;;4174330;28;20037;-60
2021/10/16 02:29:17;;;;;;;33.13;19.53;;;7.30;99.90;;;;;;4172596;28;20155;-58
2021/10/16 02:31:18;;;;;;;38.87;20.60;;;7.30;99.90;;;;;;4174061;28;20037;-59
2021/10/16 02:33:19;;;;;;;32.93;19.33;;;7.30;99.90;;;;;;4173038;28;20574;-57
2021/10/16 02:35:20;;;;;;;35.83;19.70;;;7.30;99.90;;;;;;4174013;28;20086;-58
2021/10/16 02:37:21;;;;;;;34.63;19.97;;;7.30;99.90;;;;;;4172753;28;20495;-60
2021/10/16 02:39:22;;;;;;;35.87;19.07;;;7.30;99.90;;;;;;4172701;28;20029;-57
2021/10/16 02:41:23;;;;;;;36.10;19.63;;;7.40;99.90;;;;;;4172494;28;20049;-59
2021/10/16 02:43:25;;;;;;;34.50;20.13;;;7.30;99.90;;;;;;4172145;28;20049;-60
2021/10/16 02:45:26;;;;;;;38.20;20.13;;;7.30;99.90;;;;;;4173761;28;20036;-59
2021/10/16 02:47:30;;;;;;;31.10;18.60;;;7.30;99.90;;;;;;4172986;28;20028;-58
2021/10/16 02:49:32;;;;;;;33.70;19.20;;;7.30;99.90;;;;;;4173680;28;20090;-59
2021/10/16 02:51:33;;;;;;;38.43;20.07;;;7.30;99.90;;;;;;4172266;28;20052;-62
2021/10/16 02:53:37;;;;;;;37.13;20.57;;;7.40;99.90;;;;;;4172290;28;20107;-61
2021/10/16 02:55:38;;;;;;;34.80;19.27;;;7.40;99.90;;;;;;4172101;28;20094;-60
2021/10/16 02:57:39;;;;;;;37.20;19.30;;;7.40;99.90;;;;;;4173888;28;20041;-61
2021/10/16 02:59:40;;;;;;;31.93;18.77;;;7.30;99.90;;;;;;4172792;28;20519;-59
2021/10/16 03:01:42;;;;;;;38.10;18.87;;;7.30;99.90;;;;;;4169747;28;20038;-60
2021/10/16 03:03:43;;;;;;;32.37;19.77;;;7.40;99.90;;;;;;4156626;28;20033;-60
2021/10/16 03:05:44;;;;;;;30.63;16.63;;;7.40;99.90;;;;;;4156222;28;20378;-60
2021/10/16 03:07:45;;;;;;;33.33;18.70;;;7.40;99.90;;;;;;4156471;28;20037;-61
2021/10/16 03:09:46;;;;;;;31.53;18.27;;;7.40;99.90;;;;;;4174242;28;20045;-60
2021/10/16 03:11:47;;;;;;;32.37;17.77;;;7.40;99.90;;;;;;4176132;28;20078;-58
2021/10/16 03:13:49;;;;;;;32.23;17.73;;;7.40;99.90;;;;;;4176164;28;20041;-60
2021/10/16 03:15:50;;;;;;;33.80;18.57;;;7.40;99.90;;;;;;4176905;28;20025;-60
2021/10/16 03:17:51;;;;;;;37.63;18.43;;;7.40;99.90;;;;;;4175083;28;20091;-60
2021/10/16 03:19:52;;;;;;;33.47;19.10;;;7.40;99.90;;;;;;4175173;28;20466;-61
2021/10/16 03:21:53;;;;;;;35.87;19.17;;;7.40;99.90;;;;;;4176153;28;20037;-61
2021/10/16 03:23:54;;;;;;;31.60;17.50;;;7.30;99.90;;;;;;4176879;28;20083;-60
2021/10/16 03:25:55;;;;;;;30.30;17.33;;;7.40;99.90;;;;;;4175385;28;20130;-59
2021/10/16 03:27:57;;;;;;;29.43;17.00;;;7.30;99.90;;;;;;4175786;28;20130;-60
2021/10/16 03:29:58;;;;;;;30.20;17.13;;;7.40;99.90;;;;;;4175507;28;20037;-59
2021/10/16 03:31:59;;;;;;;32.97;18.20;;;7.40;99.90;;;;;;4177368;28;20546;-60
2021/10/16 03:34:01;;;;;;;34.47;17.67;;;7.40;99.90;;;;;;4175454;28;20041;-59
2021/10/16 03:36:02;;;;;;;30.63;17.50;;;7.50;99.90;;;;;;4176104;28;20033;-60
2021/10/16 03:38:04;;;;;;;29.00;17.50;;;7.40;99.90;;;;;;4175811;28;20091;-61
2021/10/16 03:40:05;;;;;;;30.67;17.17;;;7.50;99.90;;;;;;4176245;28;20420;-61
2021/10/16 03:42:07;;;;;;;33.33;18.03;;;7.40;99.90;;;;;;4175768;28;20024;-63
2021/10/16 03:44:08;;;;;;;30.83;17.00;;;7.40;99.90;;;;;;4175733;28;20467;-58
2021/10/16 03:46:09;;;;;;;31.27;18.77;;;7.40;99.90;;;;;;4176071;28;20024;-61
2021/10/16 03:48:10;;;;;;;31.40;18.03;;;7.40;99.90;;;;;;4175168;28;20465;-59
2021/10/16 03:50:11;;;;;;;35.10;18.47;;;7.40;99.90;;;;;;4175746;28;20063;-61
2021/10/16 03:52:12;;;;;;;30.67;16.67;;;7.40;99.90;;;;;;4174731;28;20109;-61
2021/10/16 03:54:13;;;;;;;31.67;17.43;;;7.40;99.90;;;;;;4175908;28;20095;-60
2021/10/16 03:56:15;;;;;;;28.77;16.37;;;7.40;99.90;;;;;;4175561;28;20752;-60
2021/10/16 03:58:16;;;;;;;30.23;16.77;;;7.40;99.90;;;;;;4175929;28;20044;-60
2021/10/16 04:00:20;;;;;;;31.70;18.23;;;7.30;99.90;;;;;;4174512;28;20033;-60
2021/10/16 04:02:21;;;;;;;29.80;16.23;;;7.40;99.90;;;;;;4176632;28;20055;-60
2021/10/16 04:04:22;;;;;;;28.43;16.33;;;7.40;99.90;;;;;;4175819;28;20021;-60
2021/10/16 04:06:23;;;;;;;27.63;15.80;;;7.40;99.90;;;;;;4176195;28;20033;-61
2021/10/16 04:08:24;;;;;;;29.87;16.47;;;7.40;99.90;;;;;;4175562;28;20032;-59
2021/10/16 04:10:25;;;;;;;29.50;16.57;;;7.50;99.90;;;;;;4175870;28;20075;-61
2021/10/16 04:12:26;;;;;;;31.07;17.37;;;7.50;99.90;;;;;;4175577;28;20029;-59
2021/10/16 04:14:27;;;;;;;31.17;17.67;;;7.50;99.90;;;;;;4175289;28;20087;-60
2021/10/16 04:16:29;;;;;;;31.33;18.17;;;7.50;99.90;;;;;;4175337;28;20437;-62
2021/10/16 04:18:30;;;;;;;30.30;17.90;;;7.50;99.90;;;;;;4174794;28;20036;-61
2021/10/16 04:20:31;;;;;;;29.67;17.20;;;7.50;99.90;;;;;;4173937;28;20044;-61
2021/10/16 04:22:32;;;;;;;31.00;17.10;;;7.50;99.90;;;;;;4173676;28;20083;-61
2021/10/16 04:24:34;;;;;;;29.60;16.17;;;7.50;99.90;;;;;;4175565;28;20550;-61
2021/10/16 04:26:35;;;;;;;28.90;16.90;;;7.50;99.90;;;;;;4173974;28;20080;-59
2021/10/16 04:28:36;;;;;;;27.60;16.03;;;7.50;99.90;;;;;;4174594;28;20045;-56
2021/10/16 04:30:37;;;;;;;29.33;16.13;;;7.50;99.90;;;;;;4174357;28;20029;-60
2021/10/16 04:32:38;;;;;;;27.37;16.43;;;7.50;99.90;;;;;;4175413;28;20726;-62
2021/10/16 04:34:39;;;;;;;31.83;16.93;;;7.60;99.90;;;;;;4174439;28;20082;-61
2021/10/16 04:36:40;;;;;;;31.93;16.53;;;7.60;99.90;;;;;;4174687;28;20091;-62
2021/10/16 04:38:48;;;;;;;28.70;15.83;;;7.60;99.90;;;;;;4174038;28;20049;-60
2021/10/16 04:40:49;;;;;;;30.90;17.73;;;7.60;99.90;;;;;;4174436;28;20053;-57
2021/10/16 04:42:53;;;;;;;31.03;16.73;;;7.60;99.90;;;;;;4174456;28;20548;-61
2021/10/16 04:44:54;;;;;;;30.57;17.20;;;7.60;99.90;;;;;;4174005;28;20045;-60
2021/10/16 04:46:55;;;;;;;29.47;16.43;;;7.60;99.90;;;;;;4174892;28;20354;-60
2021/10/16 04:48:56;;;;;;;29.27;16.77;;;7.60;99.90;;;;;;4174466;28;20033;-59
2021/10/16 04:50:57;;;;;;;32.40;17.47;;;7.60;99.90;;;;;;4174866;28;20044;-60
2021/10/16 04:52:59;;;;;;;33.60;17.67;;;7.70;99.90;;;;;;4173841;28;20079;-60
2021/10/16 04:55:00;;;;;;;33.10;17.60;;;7.70;99.90;;;;;;4175775;28;20056;-60
2021/10/16 04:57:02;;;;;;;32.90;18.77;;;7.70;99.90;;;;;;4174143;28;20041;-60
2021/10/16 04:59:03;;;;;;;33.67;17.67;;;7.70;99.90;;;;;;4175479;28;20036;-61
2021/10/16 05:01:04;;;;;;;33.63;18.90;;;7.70;99.90;;;;;;4174424;28;20044;-58
2021/10/16 05:03:05;;;;;;;33.37;18.50;;;7.80;99.90;;;;;;4175567;28;20059;-60
2021/10/16 05:05:06;;;;;;;35.83;19.87;;;7.80;99.90;;;;;;4173781;28;20083;-59
2021/10/16 05:07:07;;;;;;;40.30;21.30;;;7.80;99.90;;;;;;4174556;28;20049;-62
2021/10/16 05:09:09;;;;;;;37.37;19.73;;;7.80;99.90;;;;;;4173539;28;20543;-54
2021/10/16 05:11:10;;;;;;;43.67;22.40;;;7.80;99.90;;;;;;4173342;28;20067;-60
2021/10/16 05:13:11;;;;;;;38.47;21.27;;;7.80;99.90;;;;;;4173539;28;20049;-61
2021/10/16 05:15:12;;;;;;;39.90;21.87;;;7.80;99.90;;;;;;4173874;28;20094;-62
2021/10/16 05:17:13;;;;;;;42.63;22.40;;;7.90;99.90;;;;;;4173551;28;20876;-59
2021/10/16 05:19:14;;;;;;;42.87;23.00;;;7.90;99.90;;;;;;4155307;28;20091;-61
2021/10/16 05:21:15;;;;;;;37.53;20.63;;;7.80;99.90;;;;;;4173676;28;20102;-58
2021/10/16 05:23:17;;;;;;;40.20;22.43;;;7.80;99.90;;;;;;4172453;28;20045;-62
2021/10/16 05:25:18;;;;;;;43.53;23.60;;;7.80;99.90;;;;;;4174352;28;20443;-56
2021/10/16 05:27:19;;;;;;;40.97;22.80;;;7.80;99.90;;;;;;4173082;28;20110;-62
2021/10/16 05:29:21;;;;;;;43.43;24.33;;;7.80;99.90;;;;;;4174940;28;20090;-60
2021/10/16 05:31:23;;;;;;;44.00;23.03;;;7.90;99.90;;;;;;4173139;28;20491;-61
2021/10/16 05:33:24;;;;;;;39.17;21.70;;;7.90;99.90;;;;;;4173679;28;20061;-60
2021/10/16 05:35:25;;;;;;;46.23;24.37;;;7.90;99.90;;;;;;4173279;28;20135;-60
2021/10/16 05:37:27;;;;;;;37.33;20.90;;;8.00;99.90;;;;;;4173751;28;20094;-60
2021/10/16 05:39:28;;;;;;;40.00;21.60;;;7.90;99.90;;;;;;4172720;28;20047;-60
2021/10/16 05:41:29;;;;;;;40.60;23.17;;;8.00;99.90;;;;;;4173313;28;20086;-58
2021/10/16 05:43:30;;;;;;;40.47;22.70;;;8.00;99.90;;;;;;4173313;28;20063;-59
2021/10/16 05:45:32;;;;;;;38.13;20.87;;;8.00;99.90;;;;;;4173494;28;20091;-60
2021/10/16 05:47:36;;;;;;;37.17;21.77;;;8.00;99.90;;;;;;4172829;28;20090;-60
2021/10/16 05:49:37;;;;;;;39.70;22.67;;;8.10;99.90;;;;;;4173287;28;20036;-55
2021/10/16 05:51:38;;;;;;;39.97;22.80;;;8.10;99.90;;;;;;4174146;28;20477;-60
2021/10/16 05:53:39;;;;;;;39.73;21.50;;;8.20;99.90;;;;;;4172820;28;20033;-59
2021/10/16 05:55:40;;;;;;;40.57;22.17;;;8.20;99.90;;;;;;4174594;28;20477;-60
2021/10/16 05:57:42;;;;;;;40.37;21.10;;;8.20;99.90;;;;;;4172136;28;20051;-60
2021/10/16 05:59:43;;;;;;;38.53;21.40;;;8.30;99.90;;;;;;4173409;28;20045;-60
2021/10/16 06:01:44;;;;;;;35.83;20.80;;;8.30;99.90;;;;;;4173759;28;20029;-60
2021/10/16 06:03:45;;;;;;;40.23;20.70;;;8.40;99.90;;;;;;4173900;28;20045;-60
2021/10/16 06:05:46;;;;;;;39.50;21.20;;;8.50;99.90;;;;;;4172137;28;20053;-60
2021/10/16 06:07:47;;;;;;;43.63;22.70;;;8.60;99.90;;;;;;4174252;28;20550;-60
2021/10/16 06:09:48;;;;;;;51.43;26.70;;;8.60;99.90;;;;;;4172930;28;20025;-62
2021/10/16 06:11:49;;;;;;;39.90;20.60;;;8.70;99.90;;;;;;4173293;28;20052;-62
2021/10/16 06:13:50;;;;;;;37.17;19.77;;;8.70;99.90;;;;;;4172366;28;20053;-63
2021/10/16 06:15:52;;;;;;;34.63;19.43;;;8.70;99.90;;;;;;4173383;28;20102;-60
2021/10/16 06:17:53;;;;;;;32.50;18.53;;;8.70;99.90;;;;;;4173447;28;20493;-60
2021/10/16 06:19:54;;;;;;;32.00;18.13;;;8.70;99.90;;;;;;4172302;28;20087;-60
2021/10/16 06:21:55;;;;;;;31.63;18.83;;;8.70;99.90;;;;;;4173647;28;20041;-60
2021/10/16 06:23:57;;;;;;;41.53;21.87;;;8.80;99.90;;;;;;4172652;28;20028;-61
2021/10/16 06:25:58;;;;;;;31.77;18.07;;;8.90;99.90;;;;;;4173240;28;20063;-61
2021/10/16 06:27:59;;;;;;;31.93;18.93;;;8.90;99.90;;;;;;4172127;28;20606;-59
2021/10/16 06:30:01;;;;;;;31.93;17.13;;;8.90;99.90;;;;;;4173895;28;20473;-60
2021/10/16 06:32:02;;;;;;;34.40;18.17;;;8.90;99.90;;;;;;4171761;28;20033;-60
2021/10/16 06:34:03;;;;;;;28.67;16.53;;;9.00;99.90;;;;;;4173343;28;20045;-62
2021/10/16 06:36:05;;;;;;;30.20;17.57;;;9.00;99.90;;;;;;4172482;28;20087;-62
2021/10/16 06:38:06;;;;;;;30.50;17.17;;;9.10;99.90;;;;;;4172869;28;20107;-61
2021/10/16 06:40:07;;;;;;;31.77;17.70;;;9.10;99.90;;;;;;4170940;28;20103;-61
2021/10/16 06:42:09;;;;;;;30.50;17.83;;;9.20;99.90;;;;;;4170991;28;20032;-61
2021/10/16 06:44:10;;;;;;;30.83;16.10;;;9.20;99.90;;;;;;4167563;28;20518;-57
2021/10/16 06:46:12;;;;;;;30.00;17.50;;;9.20;99.90;;;;;;4167658;28;20040;-62
2021/10/16 06:48:13;;;;;;;34.97;17.70;;;9.10;99.90;;;;;;4167130;28;20079;-61
2021/10/16 06:50:14;;;;;;;28.47;16.30;;;9.10;99.90;;;;;;4166883;28;20558;-61
2021/10/16 06:52:15;;;;;;;30.80;16.40;;;9.10;99.90;;;;;;4166973;28;20048;-61
2021/10/16 06:54:17;;;;;;;28.43;16.03;;;9.10;99.90;;;;;;4167088;28;20045;-61
2021/10/16 06:56:18;;;;;;;36.73;17.87;;;9.10;99.90;;;;;;4167788;28;20036;-62
2021/10/16 06:58:20;;;;;;;28.07;16.90;;;9.10;99.90;;;;;;4166365;28;20123;-60
2021/10/16 07:00:21;;;;;;;26.53;16.53;;;9.10;99.90;;;;;;4168926;28;20152;-62
2021/10/16 07:02:22;;;;;;;29.40;17.47;;;9.10;99.90;;;;;;4166861;28;20094;-61
2021/10/16 07:04:23;;;;;;;28.27;16.17;;;9.20;99.90;;;;;;4167640;28;20041;-62
2021/10/16 07:06:24;;;;;;;30.27;16.43;;;9.20;99.90;;;;;;4166793;28;20157;-62
2021/10/16 07:08:29;;;;;;;31.23;17.63;;;9.30;99.90;;;;;;4167772;28;20082;-62
2021/10/16 07:10:30;;;;;;;27.63;17.23;;;9.40;99.90;;;;;;4166138;28;20053;-62
2021/10/16 07:12:35;;;;;;;31.13;17.60;;;9.40;99.90;;;;;;4167853;28;20386;-63
2021/10/16 07:14:36;;;;;;;35.20;19.50;;;9.50;99.90;;;;;;4168033;28;20088;-62
2021/10/16 07:16:38;;;;;;;28.23;17.77;;;9.50;99.90;;;;;;4173255;28;20083;-63
2021/10/16 07:18:39;;;;;;;27.37;16.30;;;9.60;99.90;;;;;;4171201;28;20396;-61
2021/10/16 07:20:40;;;;;;;28.87;16.93;;;9.60;99.90;;;;;;4153498;28;20049;-62
2021/10/16 07:22:41;;;;;;;25.70;15.97;;;9.70;99.90;;;;;;4172508;28;20025;-58
2021/10/16 07:24:42;;;;;;;26.17;13.47;;;9.70;99.90;;;;;;4171475;28;20056;-62
2021/10/16 07:26:44;;;;;;;21.77;14.23;;;9.70;99.90;;;;;;4172524;28;20515;-62
2021/10/16 07:28:46;;;;;;;22.67;14.80;;;9.70;99.90;;;;;;4171680;28;20477;-62
2021/10/16 07:30:48;;;;;;;23.63;14.40;;;9.70;99.90;;;;;;4172913;28;20626;-62
2021/10/16 07:32:49;;;;;;;24.10;14.57;;;9.70;99.90;;;;;;4171388;28;20464;-62
2021/10/16 07:34:51;;;;;;;22.53;14.67;;;9.70;99.90;;;;;;4173690;28;20044;-61
2021/10/16 07:36:52;;;;;;;24.60;14.67;;;9.70;99.90;;;;;;4171751;28;20032;-62
2021/10/16 07:38:53;;;;;;;26.37;15.43;;;9.80;99.90;;;;;;4171800;28;20049;-63
2021/10/16 07:40:54;;;;;;;24.53;14.27;;;9.70;99.90;;;;;;4171346;28;20436;-63
2021/10/16 07:42:55;;;;;;;23.30;14.03;;;9.70;99.90;;;;;;4173248;28;20477;-63
2021/10/16 07:44:56;;;;;;;22.07;14.00;;;9.70;99.90;;;;;;4171191;28;20053;-63
2021/10/16 07:46:57;;;;;;;26.67;13.60;;;9.70;99.90;;;;;;4170664;28;20466;-63
2021/10/16 07:48:58;;;;;;;23.43;14.23;;;9.70;99.90;;;;;;4171726;28;20094;-63
2021/10/16 07:50:59;;;;;;;24.87;13.77;;;9.70;99.90;;;;;;4155814;28;20393;-64
2021/10/16 07:53:03;;;;;;;25.60;15.50;;;9.70;99.90;;;;;;4171186;28;20124;-63
2021/10/16 07:55:04;;;;;;;22.37;13.33;;;9.80;99.90;;;;;;4154116;28;20091;-63
2021/10/16 07:57:05;;;;;;;23.03;14.33;;;9.70;99.90;;;;;;4174761;28;20025;-63
2021/10/16 07:59:06;;;;;;;22.73;13.20;;;9.70;99.90;;;;;;4174334;28;20518;-62
2021/10/16 08:01:08;;;;;;;23.13;13.30;;;9.80;99.90;;;;;;4175867;28;20033;-62
2021/10/16 08:03:09;;;;;;;24.53;14.43;;;9.70;99.90;;;;;;4174265;28;20029;-62
2021/10/16 08:05:14;;;;;;;24.77;13.30;;;9.80;99.90;;;;;;4175648;28;20029;-62
2021/10/16 08:07:15;;;;;;;22.13;13.27;;;9.80;99.90;;;;;;4172501;28;20461;-62
2021/10/16 08:09:16;;;;;;;22.53;12.80;;;9.80;99.90;;;;;;4172053;28;20059;-62
2021/10/16 08:11:17;;;;;;;20.50;13.37;;;9.80;99.90;;;;;;4172464;28;20497;-62
2021/10/16 08:13:18;;;;;;;24.43;14.47;;;9.80;99.90;;;;;;4171952;28;20033;-61
2021/10/16 08:15:19;;;;;;;27.60;17.00;;;9.90;99.90;;;;;;4173225;28;20485;-62
2021/10/16 08:17:21;;;;;;;21.47;13.90;;;9.90;99.90;;;;;;4173507;28;20131;-59
2021/10/16 08:19:22;;;;;;;22.73;14.47;;;9.90;99.90;;;;;;4170928;28;20534;-61
2021/10/16 08:21:24;;;;;;;24.50;13.83;;;9.90;99.90;;;;;;4171037;28;20087;-61
2021/10/16 08:23:27;;;;;;;25.03;13.90;;;9.80;99.90;;;;;;4170290;28;20534;-61
2021/10/16 08:25:28;;;;;;;20.40;12.47;;;9.90;99.90;;;;;;4170595;28;20692;-61
2021/10/16 08:27:29;;;;;;;19.37;11.43;;;9.80;99.90;;;;;;4163455;28;20134;-61
2021/10/16 08:29:30;;;;;;;21.07;12.00;;;9.80;99.90;;;;;;4168963;28;20094;-61
2021/10/16 08:31:32;;;;;;;21.07;12.00;;;9.80;99.90;;;;;;4170063;28;21801;-60
2021/10/16 08:33:37;;;;;;;21.13;11.73;;;9.80;99.90;;;;;;4168535;28;20497;-60
2021/10/16 08:35:38;;;;;;;20.43;10.87;;;9.90;99.90;;;;;;4171523;28;20169;-62
2021/10/16 08:37:39;;;;;;;18.90;11.63;;;10.00;99.90;;;;;;4169573;28;20041;-56
2021/10/16 08:39:40;;;;;;;15.97;10.33;;;10.00;99.90;;;;;;4171495;28;20033;-57
2021/10/16 08:41:42;;;;;;;16.17;10.67;;;10.00;99.90;;;;;;4173007;28;20481;-59
2021/10/16 08:43:43;;;;;;;17.70;11.03;;;10.00;99.90;;;;;;4174294;28;20044;-62
2021/10/16 08:45:45;;;;;;;19.20;11.23;;;10.00;99.90;;;;;;4173709;28;20535;-61
2021/10/16 08:47:47;;;;;;;17.27;10.77;;;10.00;99.90;;;;;;4175478;28;20033;-62
2021/10/16 08:49:51;;;;;;;16.37;10.00;;;10.00;99.90;;;;;;4173160;28;20095;-62
2021/10/16 08:51:52;;;;;;;15.43;10.20;;;10.00;99.90;;;;;;4174820;28;20087;-58
2021/10/16 08:53:53;;;;;;;17.63;10.53;;;10.00;99.90;;;;;;4173289;28;20044;-60
2021/10/16 08:55:54;;;;;;;17.43;11.23;;;10.00;99.90;;;;;;4174836;28;20150;-61
2021/10/16 08:57:56;;;;;;;16.03;10.00;;;10.10;99.90;;;;;;4174244;28;20017;-61
2021/10/16 08:59:58;;;;;;;17.53;10.53;;;10.10;99.90;;;;;;4174129;28;20040;-60
2021/10/16 09:02:01;;;;;;;15.27;10.17;;;10.10;99.90;;;;;;4174255;28;20546;-63
2021/10/16 09:04:03;;;;;;;14.70;9.73;;;10.10;99.90;;;;;;4173659;28;20025;-62
2021/10/16 09:06:05;;;;;;;15.70;10.43;;;10.10;99.90;;;;;;4174432;28;20439;-59
2021/10/16 09:08:06;;;;;;;22.43;11.47;;;10.10;99.90;;;;;;4173402;28;20052;-61
2021/10/16 09:10:23;;;;;;;20.57;11.23;;;10.20;99.90;;;;;;4174632;28;20091;-60
2021/10/16 09:12:24;;;;;;;19.33;10.87;;;10.20;99.90;;;;;;4173076;28;20095;-60
2021/10/16 09:14:28;;;;;;;18.20;10.43;;;10.30;99.90;;;;;;4174694;28;20040;-63
2021/10/16 09:16:43;;;;;;;21.10;10.20;;;10.40;99.90;;;;;;4171900;28;20094;-63
2021/10/16 09:19:08;;;;;;;15.97;9.63;;;10.40;99.90;;;;;;4174278;28;20029;-62
2021/10/16 09:21:15;;;;;;;15.63;9.50;;;10.40;99.90;;;;;;4173281;28;20041;-62
2021/10/16 09:23:17;;;;;;;22.03;12.97;;;10.40;99.90;;;;;;4174298;28;20095;-60
2021/10/16 09:25:25;;;;;;;15.30;8.90;;;10.50;99.90;;;;;;4171546;28;20095;-59
2021/10/16 09:27:26;;;;;;;15.33;9.73;;;10.50;99.90;;;;;;4174534;28;20040;-62
2021/10/16 09:29:30;;;;;;;15.30;8.87;;;10.60;99.90;;;;;;4172827;28;20516;-62
2021/10/16 09:31:54;;;;;;;12.90;7.47;;;10.60;99.90;;;;;;4174855;28;20146;-61
2021/10/16 09:33:55;;;;;;;10.23;6.70;;;10.70;99.90;;;;;;4170467;28;20098;-59
2021/10/16 09:35:56;;;;;;;10.80;7.07;;;10.70;99.90;;;;;;4173908;28;20540;-60
2021/10/16 09:37:57;;;;;;;12.87;7.00;;;10.80;99.90;;;;;;4172663;28;20087;-61
2021/10/16 09:40:01;;;;;;;13.87;8.37;;;10.90;99.90;;;;;;4173822;28;20025;-61
2021/10/16 09:42:03;;;;;;;15.77;9.27;;;10.90;99.90;;;;;;4172595;28;20535;-61
2021/10/16 09:44:17;;;;;;;17.07;8.50;;;11.00;99.90;;;;;;4174249;28;20029;-60
2021/10/16 09:46:22;;;;;;;13.67;8.17;;;11.00;99.90;;;;;;4172813;28;20086;-61
2021/10/16 09:48:36;;;;;;;19.40;10.03;;;11.10;99.90;;;;;;4173945;28;20118;-61
2021/10/16 09:50:43;;;;;;;11.97;7.60;;;11.10;99.90;;;;;;4172951;28;20024;-60
2021/10/16 09:52:45;;;;;;;16.50;9.93;;;11.20;99.90;;;;;;4174033;28;20110;-62
2021/10/16 09:54:48;;;;;;;18.03;10.87;;;11.30;99.90;;;;;;4172421;28;20685;-61
2021/10/16 09:56:50;;;;;;;18.37;10.50;;;11.30;99.90;;;;;;4173795;28;20029;-62
2021/10/16 09:58:51;;;;;;;13.53;8.63;;;11.40;99.90;;;;;;4172784;28;20041;-62
2021/10/16 10:00:53;;;;;;;15.87;8.43;;;11.40;99.90;;;;;;4173357;28;20078;-61
2021/10/16 10:02:58;;;;;;;11.63;7.77;;;11.40;99.90;;;;;;4173141;28;20107;-61
2021/10/16 10:05:03;;;;;;;10.90;7.93;;;11.40;99.90;;;;;;4173350;28;20079;-61
2021/10/16 10:07:05;;;;;;;12.70;7.83;;;11.40;99.90;;;;;;4172993;28;20059;-61
2021/10/16 10:09:06;;;;;;;16.63;8.03;;;11.40;99.90;;;;;;4173119;28;20041;-61
2021/10/16 10:11:08;;;;;;;13.80;7.43;;;11.50;99.90;;;;;;4173671;28;20063;-59
2021/10/16 10:13:10;;;;;;;12.77;7.13;;;11.50;99.90;;;;;;4172105;28;20381;-61
2021/10/16 10:15:12;;;;;;;11.67;7.27;;;11.60;99.90;;;;;;4173759;28;20087;-61
2021/10/16 10:17:18;;;;;;;10.10;6.90;;;11.70;99.90;;;;;;4172418;28;20182;-61
2021/10/16 10:19:21;;;;;;;11.93;7.10;;;11.70;99.90;;;;;;4173607;28;20036;-61
2021/10/16 10:21:23;;;;;;;14.20;7.00;;;11.80;99.90;;;;;;4172033;28;20125;-61
2021/10/16 10:23:25;;;;;;;13.80;8.23;;;11.90;99.90;;;;;;4173624;28;20087;-61
2021/10/16 10:25:28;;;;;;;14.43;8.50;;;12.00;99.90;;;;;;4171985;28;20566;-61